Time;durP1;ratioP1;P1;durP2;ratioP2;P2;SDS_P1;SDS_P2;PMS_P1;PMS_P2;Temp;Humidity;BMP_temperature;BMP_pressure;BME280_temperature;BME280_humidity;BME280_pressure;Samples;Min_cycle;Max_cycle;Signal;HPM_P1;HPM_P2
2021/06/19 11:25:10;;;;;;;1632.05;999.90;;;25.80;99.90;;;;;;5135298;27;20541;-70
2021/06/19 11:27:55;;;;;;;1613.93;999.90;;;25.90;99.90;;;;;;5110977;28;20163;-74
2021/06/19 11:30:39;;;;;;;1666.63;999.90;;;26.00;99.90;;;;;;5111095;28;20241;-72
2021/06/19 11:33:16;;;;;;;1710.47;999.90;;;26.10;99.90;;;;;;5111152;28;20245;-72
2021/06/19 11:35:44;;;;;;;1816.53;999.90;;;26.20;99.90;;;;;;5110927;28;20181;-71
2021/06/19 11:38:10;;;;;;;1810.78;999.90;;;26.40;99.90;;;;;;5111019;28;20175;-72
2021/06/19 11:40:36;;;;;;;1841.75;999.90;;;26.50;99.90;;;;;;5110911;28;20166;-71
2021/06/19 11:43:06;;;;;;;1893.63;999.90;;;26.70;99.90;;;;;;5110548;28;20216;-71
2021/06/19 11:45:37;;;;;;;1918.28;999.90;;;26.70;99.90;;;;;;5109634;28;20710;-71
2021/06/19 11:48:04;;;;;;;1984.35;999.90;;;26.90;99.90;;;;;;5109545;28;20516;-71
2021/06/19 11:50:31;;;;;;;1999.90;999.90;;;27.00;99.90;;;;;;5110776;28;20612;-72
2021/06/19 11:53:16;;;;;;;1948.13;999.90;;;27.10;99.90;;;;;;5110489;28;20219;-71
2021/06/19 11:55:42;;;;;;;1980.45;999.90;;;27.20;99.90;;;;;;5110522;28;20174;-72
2021/06/19 11:58:07;;;;;;;1991.40;999.90;;;27.10;99.90;;;;;;5110612;28;20182;-72
2021/06/19 12:00:50;;;;;;;1999.90;999.90;;;27.10;99.90;;;;;;5110556;28;20169;-71
2021/06/19 12:03:25;;;;;;;1999.90;999.90;;;27.10;99.90;;;;;;5109231;28;20251;-71
2021/06/19 12:05:51;;;;;;;1999.90;999.90;;;27.20;99.90;;;;;;5110524;28;20158;-72
2021/06/19 12:08:26;;;;;;;1999.90;999.90;;;27.50;99.90;;;;;;5110574;28;20260;-71
2021/06/19 12:10:52;;;;;;;1999.90;999.90;;;26.90;99.90;;;;;;5110318;28;20170;-71
2021/06/19 12:13:38;;;;;;;1999.90;999.90;;;27.60;99.90;;;;;;5110285;28;20159;-72
2021/06/19 12:16:06;;;;;;;1999.90;999.90;;;27.50;99.90;;;;;;5110361;28;20220;-73
2021/06/19 12:18:32;;;;;;;1999.90;999.90;;;27.60;99.90;;;;;;5110271;28;20216;-70
2021/06/19 12:21:08;;;;;;;1999.90;999.90;;;27.70;99.90;;;;;;5110152;28;20181;-70
2021/06/19 12:23:35;;;;;;;1999.90;999.90;;;27.90;99.90;;;;;;5108441;28;20230;-71
2021/06/19 12:26:19;;;;;;;1999.90;999.90;;;28.00;99.90;;;;;;5110012;28;20216;-74
2021/06/19 12:28:47;;;;;;;1999.90;999.90;;;28.20;99.90;;;;;;5110034;28;20163;-72
2021/06/19 12:31:14;;;;;;;1999.90;999.90;;;28.40;99.90;;;;;;5109953;28;20162;-71
2021/06/19 12:33:41;;;;;;;1999.90;999.90;;;28.60;99.90;;;;;;5110097;28;20170;-74
2021/06/19 12:36:13;;;;;;;1999.90;999.90;;;28.70;99.90;;;;;;5095813;28;20167;-72
2021/06/19 12:38:44;;;;;;;1999.90;999.90;;;28.70;99.90;;;;;;5095085;28;20175;-71
2021/06/19 12:41:10;;;;;;;1999.90;999.90;;;28.80;99.90;;;;;;5096271;28;20197;-71
2021/06/19 12:43:47;;;;;;;1999.90;999.90;;;28.90;99.90;;;;;;5094851;28;20252;-71
2021/06/19 12:46:18;;;;;;;1999.90;999.90;;;28.90;99.90;;;;;;5094983;28;20262;-71
2021/06/19 12:48:43;;;;;;;1999.90;999.90;;;29.00;99.90;;;;;;5096122;28;20186;-71
2021/06/19 12:51:26;;;;;;;1999.90;999.90;;;29.00;99.90;;;;;;5096039;28;20628;-71
2021/06/19 12:53:51;;;;;;;1999.90;999.90;;;29.00;99.90;;;;;;5096027;28;20521;-71
2021/06/19 12:56:17;;;;;;;1999.90;999.90;;;28.90;99.90;;;;;;5095972;28;20179;-71
2021/06/19 12:58:48;;;;;;;1999.90;999.90;;;29.10;99.90;;;;;;5096016;28;20175;-71
2021/06/19 13:01:22;;;;;;;1999.90;999.90;;;29.30;99.90;;;;;;5095811;28;20171;-72
2021/06/19 13:03:52;;;;;;;1999.90;999.90;;;29.50;99.90;;;;;;5094684;28;20198;-72
2021/06/19 13:06:36;;;;;;;1999.90;999.90;;;29.50;99.90;;;;;;5095759;28;20163;-72
2021/06/19 13:09:05;;;;;;;1999.90;999.90;;;29.40;99.90;;;;;;5095733;28;20241;-72
2021/06/19 13:11:34;;;;;;;1999.90;999.90;;;29.30;99.90;;;;;;5095601;28;20174;-72
2021/06/19 13:14:02;;;;;;;1999.90;999.90;;;29.40;99.90;;;;;;5094291;28;20210;-72
2021/06/19 13:16:28;;;;;;;1999.90;999.90;;;29.40;99.90;;;;;;5095558;28;20242;-72
2021/06/19 13:19:11;;;;;;;1999.90;999.90;;;29.50;99.90;;;;;;5095573;28;20317;-72
2021/06/19 13:21:40;;;;;;;1999.90;999.90;;;29.40;99.90;;;;;;5095441;28;20217;-72
2021/06/19 13:24:26;;;;;;;1999.90;999.90;;;29.40;99.90;;;;;;5095167;28;20222;-72
2021/06/19 13:27:06;;;;;;;1999.90;999.90;;;29.40;99.90;;;;;;5095397;28;20196;-72
2021/06/19 13:29:32;;;;;;;1999.90;999.90;;;29.20;99.90;;;;;;5095398;28;20531;-72
2021/06/19 13:31:59;;;;;;;1999.90;999.90;;;29.30;99.90;;;;;;5095254;28;20163;-72
2021/06/19 13:34:26;;;;;;;1999.90;999.90;;;29.60;99.90;;;;;;5093845;28;20201;-72
2021/06/19 13:36:59;;;;;;;1999.90;999.90;;;29.90;99.90;;;;;;5095137;28;20182;-72
2021/06/19 13:39:28;;;;;;;1999.90;999.90;;;30.00;99.90;;;;;;5095141;28;20201;-72
2021/06/19 13:42:03;;;;;;;1999.90;999.90;;;30.20;99.90;;;;;;5095123;28;20170;-72
2021/06/19 13:44:37;;;;;;;1999.90;999.90;;;30.30;99.90;;;;;;5093841;28;20171;-72
2021/06/19 13:47:04;;;;;;;1999.90;999.90;;;30.50;99.90;;;;;;5093952;28;20179;-72
2021/06/19 13:49:29;;;;;;;1999.90;999.90;;;30.50;99.90;;;;;;5094951;28;20171;-72
2021/06/19 13:51:57;;;;;;;1999.90;999.90;;;30.60;99.90;;;;;;5094858;28;20628;-72
2021/06/19 13:54:23;;;;;;;1999.90;999.90;;;30.60;99.90;;;;;;5094789;28;20201;-72
2021/06/19 13:56:49;;;;;;;1999.90;999.90;;;30.70;99.90;;;;;;5094806;28;20195;-72
2021/06/19 13:59:15;;;;;;;1999.90;999.90;;;30.80;99.90;;;;;;5094690;28;20167;-72
2021/06/19 14:01:41;;;;;;;1999.90;999.90;;;30.90;99.90;;;;;;5094719;28;20618;-71
2021/06/19 14:04:09;;;;;;;1999.90;999.90;;;31.00;99.90;;;;;;5094707;28;20568;-72
2021/06/19 14:06:35;;;;;;;1999.90;999.90;;;31.00;99.90;;;;;;5094588;28;20163;-71
2021/06/19 14:09:02;;;;;;;1999.90;999.90;;;31.10;99.90;;;;;;5094616;28;20171;-71
2021/06/19 14:11:29;;;;;;;1810.55;999.90;;;31.20;99.90;;;;;;5094626;28;20250;-72
2021/06/19 14:13:56;;;;;;;1903.03;999.90;;;31.10;99.90;;;;;;5094265;28;20191;-71
2021/06/19 14:16:23;;;;;;;1928.15;999.90;;;31.00;99.90;;;;;;5094367;28;20168;-71
2021/06/19 14:18:49;;;;;;;1999.90;999.90;;;30.90;99.90;;;;;;5094419;28;20167;-72
2021/06/19 14:21:16;;;;;;;1999.90;999.90;;;30.90;99.90;;;;;;5094298;28;20174;-72
2021/06/19 14:23:43;;;;;;;1996.97;999.90;;;31.00;99.90;;;;;;5094032;28;20226;-72
2021/06/19 14:26:11;;;;;;;1999.90;999.90;;;30.90;99.90;;;;;;5094319;28;20171;-72
2021/06/19 14:28:38;;;;;;;1999.90;999.90;;;30.80;99.90;;;;;;5094179;28;20167;-72
2021/06/19 14:31:04;;;;;;;1999.90;999.90;;;30.70;99.90;;;;;;5094244;28;20172;-72
2021/06/19 14:33:29;;;;;;;1999.90;999.90;;;30.90;99.90;;;;;;5094121;28;20194;-72
2021/06/19 14:35:55;;;;;;;1999.90;999.90;;;31.20;99.90;;;;;;5094156;28;20167;-72
2021/06/19 14:38:20;;;;;;;1999.90;999.90;;;31.10;99.90;;;;;;5093926;28;20197;-72
2021/06/19 14:40:46;;;;;;;1999.90;999.90;;;31.10;99.90;;;;;;5093822;28;20197;-72
2021/06/19 14:43:13;;;;;;;1999.90;999.90;;;31.20;99.90;;;;;;5092389;28;20175;-72
2021/06/19 14:45:40;;;;;;;1999.90;999.90;;;31.50;99.90;;;;;;5094041;28;20685;-73
2021/06/19 14:48:06;;;;;;;1999.90;999.90;;;31.80;99.90;;;;;;5093890;28;20202;-73
2021/06/19 14:50:32;;;;;;;1999.90;999.90;;;32.10;99.90;;;;;;5093886;28;20175;-73
2021/06/19 14:52:58;;;;;;;1999.90;999.90;;;32.30;99.90;;;;;;5093661;28;20194;-73
2021/06/19 14:55:23;;;;;;;1999.90;999.90;;;32.40;99.90;;;;;;5093789;28;20167;-73
2021/06/19 14:57:49;;;;;;;1999.90;999.90;;;32.60;99.90;;;;;;5093445;28;20163;-73
2021/06/19 15:00:16;;;;;;;1869.03;999.90;;;32.70;99.90;;;;;;5093783;28;20202;-72
2021/06/19 15:02:42;;;;;;;1999.90;999.90;;;32.80;99.90;;;;;;5093661;28;20251;-72
2021/06/19 15:05:09;;;;;;;1999.90;999.90;;;32.70;99.90;;;;;;5093785;28;20190;-73
2021/06/19 15:07:35;;;;;;;1996.78;999.90;;;32.80;99.90;;;;;;5092224;28;20632;-73
2021/06/19 15:10:05;;;;;;;1868.05;999.90;;;32.70;99.90;;;;;;5093580;28;20640;-72
2021/06/19 15:12:31;;;;;;;1960.85;999.90;;;32.20;99.90;;;;;;5093474;28;20574;-72
2021/06/19 15:14:56;;;;;;;1999.90;999.90;;;32.00;99.90;;;;;;5093413;28;20198;-72
2021/06/19 15:17:22;;;;;;;1999.90;999.90;;;31.90;99.90;;;;;;5093478;28;20623;-72
2021/06/19 15:19:48;;;;;;;1987.03;999.90;;;32.10;99.90;;;;;;5093468;28;20587;-72
2021/06/19 15:22:14;;;;;;;1999.90;999.90;;;32.20;99.90;;;;;;5093422;28;20238;-72
2021/06/19 15:24:40;;;;;;;1999.90;999.90;;;32.20;99.90;;;;;;5093146;28;20684;-72
2021/06/19 15:27:10;;;;;;;1999.90;999.90;;;32.20;99.90;;;;;;5093358;28;20224;-72
2021/06/19 15:29:36;;;;;;;1791.85;999.90;;;32.40;99.90;;;;;;5093379;28;20277;-72
2021/06/19 15:32:02;;;;;;;1999.90;999.90;;;32.50;99.90;;;;;;5093382;28;20179;-72
2021/06/19 15:34:28;;;;;;;1999.90;999.90;;;32.60;99.90;;;;;;5093199;28;20282;-73
2021/06/19 15:36:53;;;;;;;1999.90;999.90;;;32.60;99.90;;;;;;5093319;28;20242;-72
2021/06/19 15:39:19;;;;;;;1999.90;999.90;;;32.50;99.90;;;;;;5093255;28;20171;-72
2021/06/19 15:41:45;;;;;;;1669.03;999.90;;;32.30;99.90;;;;;;5093225;28;20572;-72
2021/06/19 15:44:10;;;;;;;1904.40;999.90;;;31.80;99.90;;;;;;5091839;28;20224;-72
2021/06/19 15:46:36;;;;;;;1999.90;999.90;;;31.50;99.90;;;;;;5091750;28;20170;-72
2021/06/19 15:49:04;;;;;;;1999.90;999.90;;;31.40;99.90;;;;;;5093144;28;20174;-72
2021/06/19 15:51:33;;;;;;;1999.90;999.90;;;31.50;99.90;;;;;;5091902;28;20209;-72
2021/06/19 15:53:59;;;;;;;1999.90;999.90;;;31.80;99.90;;;;;;5092946;28;20316;-72
2021/06/19 15:56:24;;;;;;;1999.90;999.90;;;31.90;99.90;;;;;;5093669;28;20246;-72
2021/06/19 15:58:50;;;;;;;1999.90;999.90;;;32.10;99.90;;;;;;5093260;28;20524;-73
2021/06/19 16:01:15;;;;;;;1999.90;999.90;;;32.30;99.90;;;;;;5093122;28;20172;-72
2021/06/19 16:03:41;;;;;;;1977.30;999.90;;;32.30;99.90;;;;;;5093046;28;20174;-72
2021/06/19 16:06:06;;;;;;;1999.90;999.90;;;32.00;99.90;;;;;;5091875;28;20540;-73
2021/06/19 16:08:32;;;;;;;1999.90;999.90;;;31.90;99.90;;;;;;5092978;28;20177;-73
2021/06/19 16:10:58;;;;;;;1999.90;999.90;;;31.90;99.90;;;;;;5095750;28;20203;-72
2021/06/19 16:13:23;;;;;;;1999.90;999.90;;;32.00;99.90;;;;;;5096940;28;20663;-73
2021/06/19 16:15:49;;;;;;;1999.90;999.90;;;31.90;99.90;;;;;;5096984;28;20570;-72
2021/06/19 16:18:16;;;;;;;1999.90;999.90;;;32.10;99.90;;;;;;5096888;28;20536;-72
2021/06/19 16:20:41;;;;;;;1999.90;999.90;;;32.20;99.90;;;;;;5096706;28;20160;-73
2021/06/19 16:23:07;;;;;;;1999.90;999.90;;;32.40;99.90;;;;;;5096548;28;20219;-73
2021/06/19 16:25:32;;;;;;;1999.90;999.90;;;32.60;99.90;;;;;;5096580;28;20187;-73
2021/06/19 16:27:58;;;;;;;1999.90;999.90;;;32.60;99.90;;;;;;5095417;28;20515;-73
2021/06/19 16:30:24;;;;;;;1999.90;999.90;;;32.60;99.90;;;;;;5096545;28;20206;-73
2021/06/19 16:32:50;;;;;;;1999.90;999.90;;;32.70;99.90;;;;;;5096490;28;20171;-72
2021/06/19 16:35:16;;;;;;;1999.90;999.90;;;32.70;99.90;;;;;;5096448;28;20171;-73
2021/06/19 16:37:42;;;;;;;1999.90;999.90;;;32.40;99.90;;;;;;5096548;28;20167;-73
2021/06/19 16:40:08;;;;;;;1999.90;999.90;;;32.10;99.90;;;;;;5096893;28;20630;-71
2021/06/19 16:42:34;;;;;;;1999.90;999.90;;;31.70;99.90;;;;;;5099262;28;20159;-72
2021/06/19 16:45:00;;;;;;;1999.90;999.90;;;31.40;99.90;;;;;;5095025;28;20539;-72
2021/06/19 16:47:25;;;;;;;1999.90;999.90;;;31.20;99.90;;;;;;5096261;28;20206;-72
2021/06/19 16:49:51;;;;;;;1999.90;999.90;;;31.30;99.90;;;;;;5094940;28;20179;-72
2021/06/19 16:52:16;;;;;;;1999.90;999.90;;;31.30;99.90;;;;;;5096041;28;20718;-75
2021/06/19 16:54:42;;;;;;;1999.90;999.90;;;31.40;99.90;;;;;;5096007;28;20209;-74
2021/06/19 16:57:08;;;;;;;1999.90;999.90;;;31.40;99.90;;;;;;5096034;28;20635;-73
2021/06/19 16:59:35;;;;;;;1999.90;999.90;;;31.40;99.90;;;;;;5095995;28;20583;-73
2021/06/19 17:02:00;;;;;;;1999.90;999.90;;;31.40;99.90;;;;;;5095958;28;20159;-73
2021/06/19 17:04:26;;;;;;;1999.90;999.90;;;31.20;99.90;;;;;;5094638;28;20620;-73
2021/06/19 17:06:51;;;;;;;1999.90;999.90;;;31.00;99.90;;;;;;5094638;28;20171;-73
2021/06/19 17:09:17;;;;;;;1999.90;999.90;;;30.70;99.90;;;;;;5094403;28;20258;-73
2021/06/19 17:11:42;;;;;;;1999.90;999.90;;;30.50;99.90;;;;;;5095672;28;20172;-73
2021/06/19 17:14:08;;;;;;;1999.90;999.90;;;30.30;99.90;;;;;;5095439;28;20206;-73
2021/06/19 17:16:34;;;;;;;1999.90;999.90;;;30.10;99.90;;;;;;5095613;28;20514;-72
2021/06/19 17:18:59;;;;;;;1999.90;999.90;;;30.00;99.90;;;;;;5095521;28;20163;-73
2021/06/19 17:21:25;;;;;;;1999.90;999.90;;;29.90;99.90;;;;;;5095450;28;20640;-73
2021/06/19 17:23:50;;;;;;;1999.90;999.90;;;30.00;99.90;;;;;;5095272;28;20223;-73
2021/06/19 17:26:16;;;;;;;1999.90;999.90;;;30.10;99.90;;;;;;5095417;28;20170;-73
2021/06/19 17:28:44;;;;;;;1999.90;999.90;;;30.40;99.90;;;;;;5095320;28;20185;-73
2021/06/19 17:31:09;;;;;;;1999.90;999.90;;;30.70;99.90;;;;;;5095345;28;20159;-73
2021/06/19 17:33:35;;;;;;;1999.90;999.90;;;30.90;99.90;;;;;;5095212;28;20191;-73
2021/06/19 17:36:00;;;;;;;1999.90;999.90;;;30.90;99.90;;;;;;5095182;28;20167;-73
2021/06/19 17:38:26;;;;;;;1999.90;999.90;;;30.70;99.90;;;;;;5095308;28;20163;-73
2021/06/19 17:40:52;;;;;;;1999.90;999.90;;;30.60;99.90;;;;;;5095080;28;20170;-73
2021/06/19 17:43:18;;;;;;;1999.90;999.90;;;30.30;99.90;;;;;;5095106;28;20245;-73
2021/06/19 17:45:44;;;;;;;1999.90;999.90;;;30.10;99.90;;;;;;5095000;28;20205;-73
2021/06/19 17:48:09;;;;;;;1999.90;999.90;;;29.80;99.90;;;;;;5094952;28;20171;-73
2021/06/19 17:50:35;;;;;;;1999.90;999.90;;;29.60;99.90;;;;;;5094875;28;20185;-72
2021/06/19 17:53:05;;;;;;;1999.90;999.90;;;29.40;99.90;;;;;;5094847;28;20194;-72
2021/06/19 17:55:33;;;;;;;1999.90;999.90;;;29.20;99.90;;;;;;5094851;28;20236;-72
2021/06/19 17:57:59;;;;;;;1999.90;999.90;;;28.90;99.90;;;;;;5094847;28;20176;-72
2021/06/19 18:00:25;;;;;;;1999.90;999.90;;;28.80;99.90;;;;;;5094742;28;20196;-72
2021/06/19 18:02:50;;;;;;;1999.90;999.90;;;28.70;99.90;;;;;;5094679;28;20221;-72
2021/06/19 18:05:16;;;;;;;1999.90;999.90;;;28.60;99.90;;;;;;5094603;28;20170;-72
2021/06/19 18:07:42;;;;;;;1999.90;999.90;;;28.60;99.90;;;;;;5094486;28;20182;-72
2021/06/19 18:10:09;;;;;;;1999.90;999.90;;;28.60;99.90;;;;;;5093311;28;20178;-72
2021/06/19 18:12:35;;;;;;;1999.90;999.90;;;28.60;99.90;;;;;;5094567;28;20244;-72
2021/06/19 18:15:02;;;;;;;1999.90;999.90;;;28.70;99.90;;;;;;5094424;28;20826;-72
2021/06/19 18:17:28;;;;;;;1999.90;999.90;;;28.70;99.90;;;;;;5094411;28;20171;-72
2021/06/19 18:19:53;;;;;;;1999.90;999.90;;;28.80;99.90;;;;;;5094288;28;20233;-72
2021/06/19 18:22:20;;;;;;;1999.90;999.90;;;28.80;99.90;;;;;;5094342;28;20164;-72
2021/06/19 18:24:45;;;;;;;1999.90;999.90;;;28.80;99.90;;;;;;5094073;28;20720;-72
2021/06/19 18:27:11;;;;;;;1999.90;999.90;;;28.80;99.90;;;;;;5094250;28;20167;-72
2021/06/19 18:29:38;;;;;;;1999.90;999.90;;;28.70;99.90;;;;;;5094221;28;20167;-72
2021/06/19 18:32:06;;;;;;;1999.90;999.90;;;28.70;99.90;;;;;;5093969;28;20242;-72
2021/06/19 18:34:33;;;;;;;1999.90;999.90;;;28.60;99.90;;;;;;5093760;28;20206;-72
2021/06/19 18:36:58;;;;;;;1999.90;999.90;;;28.60;99.90;;;;;;5094124;28;20241;-72
2021/06/19 18:39:24;;;;;;;1999.90;999.90;;;28.40;99.90;;;;;;5094107;28;20244;-71
2021/06/19 18:41:50;;;;;;;1999.90;999.90;;;28.30;99.90;;;;;;5094085;28;20159;-72
2021/06/19 18:44:16;;;;;;;1999.90;999.90;;;28.10;99.90;;;;;;5094023;28;20173;-72
2021/06/19 18:46:43;;;;;;;1999.90;999.90;;;28.00;99.90;;;;;;5093879;28;20163;-72
2021/06/19 18:49:08;;;;;;;1999.90;999.90;;;27.80;99.90;;;;;;5093875;28;20171;-72
2021/06/19 18:51:34;;;;;;;1999.90;999.90;;;27.70;99.90;;;;;;5093894;28;20568;-72
2021/06/19 18:53:59;;;;;;;1999.90;999.90;;;27.60;99.90;;;;;;5093755;28;20195;-72
2021/06/19 18:56:25;;;;;;;1999.90;999.90;;;27.40;99.90;;;;;;5093787;28;20194;-72
2021/06/19 18:58:51;;;;;;;1999.90;999.90;;;27.20;99.90;;;;;;5093802;28;20163;-72
2021/06/19 19:01:17;;;;;;;1999.90;999.90;;;27.10;99.90;;;;;;5092457;28;20171;-72
2021/06/19 19:03:42;;;;;;;1999.90;999.90;;;27.00;99.90;;;;;;5093714;28;20640;-72
